Time;durP1;ratioP1;P1;durP2;ratioP2;P2;SDS_P1;SDS_P2;PMS_P1;PMS_P2;Temp;Humidity;BMP_temperature;BMP_pressure;BME280_temperature;BME280_humidity;BME280_pressure;Samples;Min_cycle;Max_cycle;Signal;HPM_P1;HPM_P2
2023/01/23 00:02:15;;;;;;;20.30;14.60;;;3.50;99.90;;;;;;5055374;28;20461;-70
2023/01/23 00:04:42;;;;;;;19.40;13.80;;;3.50;99.90;;;;;;5054993;28;20546;-70
2023/01/23 00:07:09;;;;;;;20.17;13.83;;;3.50;99.90;;;;;;5055570;28;20546;-70
2023/01/23 00:09:37;;;;;;;22.90;14.33;;;3.50;99.90;;;;;;5055573;28;20836;-70
2023/01/23 00:12:05;;;;;;;19.10;13.57;;;3.50;99.90;;;;;;5055579;28;20455;-70
2023/01/23 00:14:32;;;;;;;21.10;13.57;;;3.50;99.90;;;;;;5055671;28;20489;-69
2023/01/23 00:16:58;;;;;;;21.57;12.70;;;3.50;99.90;;;;;;5054798;28;20920;-70
2023/01/23 00:19:25;;;;;;;20.17;13.73;;;3.50;99.90;;;;;;5055607;28;20546;-70
2023/01/23 00:21:52;;;;;;;22.97;13.83;;;3.50;99.90;;;;;;5054496;28;20488;-70
2023/01/23 00:24:19;;;;;;;21.03;13.43;;;3.50;99.90;;;;;;5054736;28;20508;-70
2023/01/23 00:26:47;;;;;;;18.63;13.80;;;3.50;99.90;;;;;;5054706;28;20506;-70
2023/01/23 00:29:15;;;;;;;20.27;14.23;;;3.50;99.90;;;;;;5054305;28;20495;-69
2023/01/23 00:31:42;;;;;;;21.20;14.27;;;3.50;99.90;;;;;;5054593;28;20796;-69
2023/01/23 00:34:13;;;;;;;24.07;14.87;;;3.50;99.90;;;;;;5054793;28;20460;-71
2023/01/23 00:36:41;;;;;;;21.73;14.10;;;3.50;99.90;;;;;;5054702;28;20572;-70
2023/01/23 00:39:12;;;;;;;25.20;14.30;;;3.50;99.90;;;;;;5054781;28;20502;-68
2023/01/23 00:41:39;;;;;;;23.13;14.23;;;3.60;99.90;;;;;;5054956;28;20432;-70
2023/01/23 00:44:07;;;;;;;23.43;14.80;;;3.60;99.90;;;;;;5054251;28;20593;-70
2023/01/23 00:46:34;;;;;;;22.20;12.97;;;3.60;99.90;;;;;;5053918;28;20487;-70
2023/01/23 00:49:01;;;;;;;21.50;14.27;;;3.60;99.90;;;;;;5054072;28;20547;-69
2023/01/23 00:51:28;;;;;;;20.07;13.83;;;3.60;99.90;;;;;;5053596;28;20545;-69
2023/01/23 00:53:55;;;;;;;24.17;14.00;;;3.60;99.90;;;;;;5055035;28;20522;-69
2023/01/23 00:56:22;;;;;;;21.10;14.83;;;3.60;99.90;;;;;;5057569;28;20482;-68
2023/01/23 00:58:49;;;;;;;23.20;14.50;;;3.60;99.90;;;;;;5057795;28;20855;-68
2023/01/23 01:01:17;;;;;;;22.87;13.80;;;3.50;99.90;;;;;;5057578;28;20546;-69
2023/01/23 01:03:45;;;;;;;23.33;14.17;;;3.50;99.90;;;;;;5057366;28;20830;-70
2023/01/23 01:06:12;;;;;;;22.60;15.00;;;3.50;99.90;;;;;;5057111;28;20455;-69
2023/01/23 01:08:39;;;;;;;22.70;14.30;;;3.50;99.90;;;;;;5057914;28;20530;-70
2023/01/23 01:11:07;;;;;;;25.00;14.47;;;3.50;99.90;;;;;;5057160;28;20465;-70
2023/01/23 01:13:34;;;;;;;21.27;14.53;;;3.40;99.90;;;;;;5057039;28;20557;-70
2023/01/23 01:16:00;;;;;;;24.13;14.83;;;3.40;99.90;;;;;;5056825;28;20479;-69
2023/01/23 01:18:29;;;;;;;22.90;15.30;;;3.40;99.90;;;;;;5057778;28;20459;-69
2023/01/23 01:20:56;;;;;;;20.50;14.53;;;3.40;99.90;;;;;;5057473;28;20458;-69
2023/01/23 01:23:23;;;;;;;22.40;14.47;;;3.40;99.90;;;;;;5057400;28;20545;-70
2023/01/23 01:25:50;;;;;;;22.90;15.50;;;3.40;99.90;;;;;;5057171;28;20455;-69
2023/01/23 01:28:17;;;;;;;24.70;14.93;;;3.40;99.90;;;;;;5057347;28;20763;-69
2023/01/23 01:30:44;;;;;;;24.37;15.40;;;3.40;99.90;;;;;;5057517;28;20542;-69
2023/01/23 01:33:11;;;;;;;24.17;14.77;;;3.50;99.90;;;;;;5057521;28;20808;-70
2023/01/23 01:35:41;;;;;;;23.63;15.00;;;3.40;99.90;;;;;;5057173;28;20895;-69
2023/01/23 01:38:08;;;;;;;19.10;13.30;;;3.40;99.90;;;;;;5056877;28;20466;-70
2023/01/23 01:40:35;;;;;;;22.93;15.30;;;3.40;99.90;;;;;;5057248;28;20465;-70
2023/01/23 01:43:04;;;;;;;22.60;14.63;;;3.50;99.90;;;;;;5056697;28;20497;-69
2023/01/23 01:46:03;;;;;;;23.03;14.00;;;3.50;99.90;;;;;;5057205;28;20479;-70
2023/01/23 01:48:34;;;;;;;25.90;14.70;;;3.50;99.90;;;;;;5056759;28;20444;-69
2023/01/23 01:51:09;;;;;;;24.60;15.87;;;3.50;99.90;;;;;;5057045;28;20461;-70
2023/01/23 01:53:37;;;;;;;22.93;15.70;;;3.50;99.90;;;;;;5056419;28;20454;-70
2023/01/23 01:56:05;;;;;;;24.87;14.30;;;3.50;99.90;;;;;;5056137;28;21045;-70
2023/01/23 01:58:33;;;;;;;26.13;15.10;;;3.50;99.90;;;;;;5056343;28;20546;-70
2023/01/23 02:00:59;;;;;;;25.13;14.00;;;3.50;99.90;;;;;;5056554;28;20463;-70
2023/01/23 02:03:26;;;;;;;20.00;14.23;;;3.50;99.90;;;;;;5056549;28;20473;-70
2023/01/23 02:05:53;;;;;;;22.43;13.30;;;3.50;99.90;;;;;;5055570;28;20554;-71
2023/01/23 02:08:27;;;;;;;24.47;14.80;;;3.50;99.90;;;;;;5056263;28;20455;-69
2023/01/23 02:10:54;;;;;;;28.03;16.03;;;3.50;99.90;;;;;;5055972;28;20534;-70
2023/01/23 02:13:27;;;;;;;23.90;14.73;;;3.50;99.90;;;;;;5056327;28;20558;-69
2023/01/23 02:15:54;;;;;;;25.73;15.50;;;3.50;99.90;;;;;;5056134;28;20494;-69
2023/01/23 02:18:22;;;;;;;21.93;13.83;;;3.60;99.90;;;;;;5057019;28;20455;-71
2023/01/23 02:20:52;;;;;;;26.70;15.37;;;3.60;99.90;;;;;;5056237;28;20968;-71
2023/01/23 02:23:30;;;;;;;21.03;14.00;;;3.60;99.90;;;;;;5057092;28;20451;-70
2023/01/23 02:26:01;;;;;;;25.33;15.00;;;3.60;99.90;;;;;;5056063;28;20482;-71
2023/01/23 02:28:38;;;;;;;24.57;14.57;;;3.60;99.90;;;;;;5056094;28;20927;-70
2023/01/23 02:31:06;;;;;;;22.77;15.60;;;3.60;99.90;;;;;;5056084;28;20837;-69
2023/01/23 02:33:53;;;;;;;23.10;14.67;;;3.60;99.90;;;;;;5056052;28;20459;-71
2023/01/23 02:36:24;;;;;;;25.90;14.50;;;3.60;99.90;;;;;;5056182;28;20483;-70
2023/01/23 02:39:01;;;;;;;23.30;13.60;;;3.60;99.90;;;;;;5056560;28;20448;-70
2023/01/23 02:41:31;;;;;;;18.27;13.13;;;3.60;99.90;;;;;;5057040;28;20469;-71
2023/01/23 02:44:03;;;;;;;23.90;14.50;;;3.60;99.90;;;;;;5055862;28;20590;-70
2023/01/23 02:46:30;;;;;;;23.80;15.03;;;3.60;99.90;;;;;;5056442;28;20436;-70
2023/01/23 02:48:56;;;;;;;24.27;14.80;;;3.60;99.90;;;;;;5056367;28;20465;-70
2023/01/23 02:51:23;;;;;;;22.20;14.37;;;3.60;99.90;;;;;;5056334;28;20850;-70
2023/01/23 02:53:50;;;;;;;26.17;14.73;;;3.60;99.90;;;;;;5055951;28;20459;-71
2023/01/23 02:56:18;;;;;;;23.77;14.90;;;3.60;99.90;;;;;;5055457;28;20475;-70
2023/01/23 03:01:28;;;;;;;22.07;15.10;;;3.60;99.90;;;;;;5033388;28;20447;-70
2023/01/23 03:04:02;;;;;;;24.53;14.13;;;3.60;99.90;;;;;;5055295;28;20541;-69
2023/01/23 03:06:34;;;;;;;25.03;14.80;;;3.60;99.90;;;;;;5055549;28;20435;-70
2023/01/23 03:09:06;;;;;;;25.43;15.10;;;3.60;99.90;;;;;;5055077;28;20450;-70
2023/01/23 03:11:34;;;;;;;22.53;13.93;;;3.60;99.90;;;;;;5055384;28;20524;-69
2023/01/23 03:14:03;;;;;;;22.97;14.77;;;3.60;99.90;;;;;;5055308;28;20530;-70
2023/01/23 03:16:29;;;;;;;21.87;14.27;;;3.60;99.90;;;;;;5054291;28;20604;-70
2023/01/23 03:19:00;;;;;;;23.03;14.60;;;3.60;99.90;;;;;;5054998;28;20541;-69
2023/01/23 03:21:27;;;;;;;24.63;14.73;;;3.60;99.90;;;;;;5055298;28;20462;-71
2023/01/23 03:23:54;;;;;;;22.63;14.10;;;3.60;99.90;;;;;;5055718;28;20465;-70
2023/01/23 03:26:21;;;;;;;22.57;14.00;;;3.60;99.90;;;;;;5056032;28;20538;-70
2023/01/23 03:31:33;;;;;;;20.03;12.50;;;3.60;99.90;;;;;;5056642;28;20507;-70
2023/01/23 03:34:00;;;;;;;24.77;14.37;;;3.60;99.90;;;;;;5055601;28;20497;-70
2023/01/23 03:36:27;;;;;;;23.67;15.00;;;3.70;99.90;;;;;;5055333;28;20489;-70
2023/01/23 03:41:40;;;;;;;22.97;15.20;;;3.60;99.90;;;;;;5054890;28;20422;-70
2023/01/23 03:44:08;;;;;;;25.10;14.30;;;3.50;99.90;;;;;;5054753;28;20846;-70
2023/01/23 03:46:36;;;;;;;24.90;16.23;;;3.50;99.90;;;;;;5054738;28;20466;-70
2023/01/23 03:49:03;;;;;;;21.97;14.80;;;3.50;99.90;;;;;;5054429;28;20468;-69
2023/01/23 03:51:30;;;;;;;22.87;15.50;;;3.50;99.90;;;;;;5054621;28;20459;-70
2023/01/23 03:53:57;;;;;;;21.33;14.27;;;3.50;99.90;;;;;;5054433;28;20454;-70
2023/01/23 03:56:24;;;;;;;25.10;15.37;;;3.50;99.90;;;;;;5054155;28;20485;-69
2023/01/23 03:58:51;;;;;;;23.27;15.70;;;3.60;99.90;;;;;;5054661;28;20517;-71
2023/01/23 04:01:18;;;;;;;27.63;17.50;;;3.60;99.90;;;;;;5054364;28;20459;-70
2023/01/23 04:03:46;;;;;;;25.40;14.90;;;3.60;99.90;;;;;;5054821;28;20644;-70
2023/01/23 04:06:13;;;;;;;25.17;15.33;;;3.60;99.90;;;;;;5054588;28;20451;-69
2023/01/23 04:08:40;;;;;;;24.43;15.73;;;3.60;99.90;;;;;;5054602;28;20459;-70
2023/01/23 04:11:09;;;;;;;21.30;14.00;;;3.60;99.90;;;;;;5054572;28;20465;-70
2023/01/23 04:13:36;;;;;;;30.10;16.13;;;3.60;99.90;;;;;;5054472;28;20524;-70
2023/01/23 04:16:04;;;;;;;26.53;16.17;;;3.60;99.90;;;;;;5054514;28;20577;-70
2023/01/23 04:18:31;;;;;;;21.93;14.27;;;3.60;99.90;;;;;;5054390;28;20458;-70
2023/01/23 04:20:59;;;;;;;28.43;15.93;;;3.60;99.90;;;;;;5055168;28;20542;-70
2023/01/23 04:23:26;;;;;;;23.87;14.77;;;3.50;99.90;;;;;;5055584;28;20541;-69
2023/01/23 04:25:53;;;;;;;22.67;14.13;;;3.50;99.90;;;;;;5055197;28;20471;-70
2023/01/23 04:28:21;;;;;;;23.80;15.50;;;3.50;99.90;;;;;;5056587;28;20457;-71
2023/01/23 04:30:49;;;;;;;25.93;16.43;;;3.50;99.90;;;;;;5058610;28;20545;-71
2023/01/23 04:33:15;;;;;;;21.47;15.03;;;3.50;99.90;;;;;;5058163;28;20545;-70
2023/01/23 04:35:49;;;;;;;23.53;14.87;;;3.50;99.90;;;;;;5058280;28;20455;-71
2023/01/23 04:38:17;;;;;;;26.10;17.03;;;3.50;99.90;;;;;;5058027;28;20534;-71
2023/01/23 04:40:45;;;;;;;26.13;16.30;;;3.50;99.90;;;;;;5058310;28;20462;-71
2023/01/23 04:43:12;;;;;;;22.50;15.13;;;3.50;99.90;;;;;;5057571;28;20483;-70
2023/01/23 04:45:39;;;;;;;23.17;16.40;;;3.50;99.90;;;;;;5057975;28;20458;-70
2023/01/23 04:48:06;;;;;;;24.73;15.30;;;3.50;99.90;;;;;;5057937;28;20465;-70
2023/01/23 04:50:33;;;;;;;23.17;16.47;;;3.50;99.90;;;;;;5059224;28;20792;-70
2023/01/23 04:53:01;;;;;;;24.37;15.53;;;3.60;99.90;;;;;;5058390;28;20455;-70
2023/01/23 04:55:29;;;;;;;27.17;16.40;;;3.60;99.90;;;;;;5057953;28;20454;-70
2023/01/23 04:57:56;;;;;;;25.00;16.30;;;3.60;99.90;;;;;;5057871;28;20483;-71
2023/01/23 05:00:23;;;;;;;26.60;16.63;;;3.50;99.90;;;;;;5057915;28;20854;-70
2023/01/23 05:02:51;;;;;;;26.67;17.97;;;3.50;99.90;;;;;;5057767;28;20833;-69
2023/01/23 05:05:19;;;;;;;26.53;17.53;;;3.50;99.90;;;;;;5057796;28;20530;-69
2023/01/23 05:07:47;;;;;;;27.20;15.63;;;3.50;99.90;;;;;;5057730;28;20516;-70
2023/01/23 05:10:15;;;;;;;24.33;16.87;;;3.50;99.90;;;;;;5057612;28;20463;-69
2023/01/23 05:12:43;;;;;;;26.37;16.23;;;3.50;99.90;;;;;;5057420;28;20541;-70
2023/01/23 05:15:11;;;;;;;24.20;16.67;;;3.50;99.90;;;;;;5057312;28;20459;-70
2023/01/23 05:17:38;;;;;;;25.20;17.10;;;3.50;99.90;;;;;;5057204;28;20483;-70
2023/01/23 05:20:06;;;;;;;24.97;14.50;;;3.50;99.90;;;;;;5057512;28;20630;-70
2023/01/23 05:22:33;;;;;;;26.93;16.27;;;3.50;99.90;;;;;;5057130;28;20470;-69
2023/01/23 05:25:00;;;;;;;30.67;16.97;;;3.50;99.90;;;;;;5056967;28;20465;-70
2023/01/23 05:27:26;;;;;;;23.77;15.37;;;3.60;99.90;;;;;;5057036;28;20451;-71
2023/01/23 05:29:55;;;;;;;29.73;16.43;;;3.60;99.90;;;;;;5057755;28;20557;-70
2023/01/23 05:32:21;;;;;;;24.60;16.30;;;3.60;99.90;;;;;;5057450;28;20469;-71
2023/01/23 05:34:48;;;;;;;23.93;15.60;;;3.70;99.90;;;;;;5057901;28;20455;-71
2023/01/23 05:37:15;;;;;;;26.33;17.17;;;3.70;99.90;;;;;;5057721;28;20578;-70
2023/01/23 05:39:42;;;;;;;25.87;16.03;;;3.70;99.90;;;;;;5057026;28;20534;-70
2023/01/23 05:42:09;;;;;;;23.60;15.50;;;3.70;99.90;;;;;;5056850;28;20495;-70
2023/01/23 05:44:36;;;;;;;24.20;15.83;;;3.70;99.90;;;;;;5057491;28;20457;-70
2023/01/23 05:47:04;;;;;;;22.90;15.37;;;3.70;99.90;;;;;;5056472;28;20457;-70
2023/01/23 05:49:31;;;;;;;29.10;16.70;;;3.70;99.90;;;;;;5057100;28;20455;-70
2023/01/23 05:51:58;;;;;;;27.30;17.13;;;3.70;99.90;;;;;;5056787;28;20558;-70
2023/01/23 05:54:25;;;;;;;26.03;16.00;;;3.60;99.90;;;;;;5056993;28;20485;-70
2023/01/23 05:56:51;;;;;;;26.20;17.03;;;3.60;99.90;;;;;;5056633;28;20483;-70
2023/01/23 05:59:18;;;;;;;68.47;40.17;;;3.50;99.90;;;;;;5056508;28;20498;-71
2023/01/23 06:01:45;;;;;;;28.83;18.27;;;3.50;99.90;;;;;;5056398;28;20469;-70
2023/01/23 06:04:15;;;;;;;25.17;15.80;;;3.50;99.90;;;;;;5056396;28;20510;-70
2023/01/23 06:06:42;;;;;;;31.20;17.50;;;3.50;99.90;;;;;;5056445;28;20451;-70
2023/01/23 06:09:08;;;;;;;26.53;17.50;;;3.50;99.90;;;;;;5056203;28;20455;-70
2023/01/23 06:11:35;;;;;;;24.27;15.47;;;3.50;99.90;;;;;;5056118;28;20462;-69
2023/01/23 06:14:02;;;;;;;24.07;15.70;;;3.50;99.90;;;;;;5056071;28;20487;-70
2023/01/23 06:16:29;;;;;;;25.07;15.90;;;3.60;99.90;;;;;;5055954;28;20683;-70
2023/01/23 06:18:56;;;;;;;23.20;16.13;;;3.60;99.90;;;;;;5056257;28;20479;-70
2023/01/23 06:21:24;;;;;;;24.47;15.50;;;3.60;99.90;;;;;;5056337;28;20491;-70
2023/01/23 06:23:51;;;;;;;26.00;17.03;;;3.50;99.90;;;;;;5055895;28;20455;-70
2023/01/23 06:26:18;;;;;;;21.73;15.73;;;3.60;99.90;;;;;;5056461;28;20476;-71
2023/01/23 06:28:45;;;;;;;26.17;16.60;;;3.50;99.90;;;;;;5056047;28;20911;-70
2023/01/23 06:31:12;;;;;;;27.27;16.40;;;3.60;99.90;;;;;;5056230;28;20483;-69
2023/01/23 06:33:38;;;;;;;24.87;15.70;;;3.60;99.90;;;;;;5056066;28;20543;-70
2023/01/23 06:36:07;;;;;;;28.27;15.73;;;3.60;99.90;;;;;;5055981;28;20461;-71
2023/01/23 06:38:35;;;;;;;26.67;15.83;;;3.60;99.90;;;;;;5056789;28;20494;-70
2023/01/23 06:41:02;;;;;;;27.87;18.03;;;3.60;99.90;;;;;;5055544;28;20467;-71
2023/01/23 06:43:29;;;;;;;24.73;17.27;;;3.60;99.90;;;;;;5055396;28;20586;-70
2023/01/23 06:45:56;;;;;;;29.00;17.20;;;3.60;99.90;;;;;;5055262;28;20944;-71
2023/01/23 06:48:23;;;;;;;23.07;15.70;;;3.60;99.90;;;;;;5055732;28;20455;-70
2023/01/23 06:50:50;;;;;;;23.60;15.87;;;3.60;99.90;;;;;;5055725;28;20942;-70
2023/01/23 06:53:18;;;;;;;23.73;16.17;;;3.60;99.90;;;;;;5055616;28;20459;-69
2023/01/23 06:55:46;;;;;;;26.40;17.10;;;3.60;99.90;;;;;;5055758;28;20455;-69
2023/01/23 06:58:13;;;;;;;23.57;16.27;;;3.60;99.90;;;;;;5055052;28;20982;-71
2023/01/23 07:00:43;;;;;;;24.80;16.43;;;3.60;99.90;;;;;;5055872;28;20517;-72
2023/01/23 07:03:11;;;;;;;26.53;17.33;;;3.60;99.90;;;;;;5055673;28;20470;-71
2023/01/23 07:05:38;;;;;;;24.53;16.33;;;3.60;99.90;;;;;;5055443;28;20568;-69
2023/01/23 07:08:05;;;;;;;23.77;16.00;;;3.60;99.90;;;;;;5055356;28;20455;-71
2023/01/23 07:10:32;;;;;;;25.00;17.60;;;3.60;99.90;;;;;;5055151;28;20554;-71
2023/01/23 07:13:00;;;;;;;26.07;16.57;;;3.60;99.90;;;;;;5055265;28;20455;-69
2023/01/23 07:15:27;;;;;;;23.03;16.00;;;3.60;99.90;;;;;;5055254;28;20545;-70
2023/01/23 07:17:54;;;;;;;23.60;15.07;;;3.60;99.90;;;;;;5055853;28;20494;-70
2023/01/23 07:20:21;;;;;;;23.80;15.67;;;3.60;99.90;;;;;;5055046;28;20466;-71
2023/01/23 07:22:48;;;;;;;25.47;15.30;;;3.60;99.90;;;;;;5055427;28;20566;-69
2023/01/23 07:25:15;;;;;;;28.43;17.57;;;3.60;99.90;;;;;;5055405;28;20553;-71
2023/01/23 07:27:42;;;;;;;26.80;16.53;;;3.70;99.90;;;;;;5055545;28;20451;-70
2023/01/23 07:30:12;;;;;;;30.47;16.60;;;3.70;99.90;;;;;;5055535;28;20518;-71
2023/01/23 07:32:39;;;;;;;24.70;16.30;;;3.70;99.90;;;;;;5057188;28;20546;-70
2023/01/23 07:35:08;;;;;;;26.00;17.00;;;3.70;99.90;;;;;;5056904;28;20506;-69
2023/01/23 07:37:35;;;;;;;24.27;16.60;;;3.60;99.90;;;;;;5055322;28;20582;-69
2023/01/23 07:40:02;;;;;;;25.83;16.57;;;3.60;99.90;;;;;;5054864;28;20550;-69
2023/01/23 07:42:29;;;;;;;25.67;16.97;;;3.60;99.90;;;;;;5054947;28;20882;-70
2023/01/23 07:44:56;;;;;;;26.63;15.97;;;3.70;99.90;;;;;;5055301;28;20808;-69
2023/01/23 07:47:24;;;;;;;31.07;17.10;;;3.70;99.90;;;;;;5054691;28;20469;-70
2023/01/23 07:49:51;;;;;;;29.63;16.57;;;3.80;99.90;;;;;;5054293;28;20574;-70
2023/01/23 07:52:18;;;;;;;31.00;19.30;;;3.70;99.90;;;;;;5055244;28;20497;-70
2023/01/23 07:54:44;;;;;;;30.00;17.23;;;3.70;99.90;;;;;;5054610;28;20463;-70
2023/01/23 07:57:11;;;;;;;39.67;20.70;;;3.70;99.90;;;;;;5054644;28;20771;-70
2023/01/23 07:59:39;;;;;;;32.17;18.63;;;3.70;99.90;;;;;;5054826;28;20490;-70
2023/01/23 08:02:06;;;;;;;26.13;16.93;;;3.60;99.90;;;;;;5054023;28;20830;-70
2023/01/23 08:04:34;;;;;;;28.10;17.30;;;3.60;99.90;;;;;;5054148;28;20878;-69
2023/01/23 08:07:01;;;;;;;22.17;16.00;;;3.60;99.90;;;;;;5054285;28;20498;-70
2023/01/23 08:09:28;;;;;;;26.37;16.90;;;3.60;99.90;;;;;;5054305;28;20928;-70
2023/01/23 08:11:55;;;;;;;25.83;16.93;;;3.60;99.90;;;;;;5054603;28;20463;-70
2023/01/23 08:14:22;;;;;;;28.53;17.23;;;3.60;99.90;;;;;;5054615;28;20542;-70
2023/01/23 08:16:49;;;;;;;22.00;15.57;;;3.70;99.90;;;;;;5054191;28;20481;-71
2023/01/23 08:19:16;;;;;;;26.60;16.90;;;3.70;99.90;;;;;;5054139;28;20466;-70
2023/01/23 08:21:45;;;;;;;25.97;16.67;;;3.70;99.90;;;;;;5054062;28;20455;-70
2023/01/23 08:24:12;;;;;;;25.97;17.10;;;3.70;99.90;;;;;;5054153;28;20983;-70
2023/01/23 08:26:40;;;;;;;27.30;16.37;;;3.70;99.90;;;;;;5054229;28;20470;-70
2023/01/23 08:29:07;;;;;;;24.33;15.77;;;3.70;99.90;;;;;;5054165;28;20455;-69
2023/01/23 08:31:34;;;;;;;27.97;17.77;;;3.70;99.90;;;;;;5054671;28;20538;-71
2023/01/23 08:34:01;;;;;;;21.17;14.60;;;3.70;99.90;;;;;;5055140;28;20506;-71
2023/01/23 08:36:28;;;;;;;28.07;16.90;;;3.70;99.90;;;;;;5054390;28;20465;-71
2023/01/23 08:38:57;;;;;;;23.53;16.50;;;3.80;99.90;;;;;;5054088;28;20479;-70
2023/01/23 08:41:24;;;;;;;25.20;15.50;;;3.70;99.90;;;;;;5054363;28;20787;-70
2023/01/23 08:43:51;;;;;;;27.37;17.50;;;3.80;99.90;;;;;;5053802;28;20495;-69
2023/01/23 08:46:18;;;;;;;30.73;20.00;;;3.80;99.90;;;;;;5056259;28;20465;-70
2023/01/23 08:48:44;;;;;;;29.60;19.20;;;3.80;99.90;;;;;;5073728;28;20461;-70
2023/01/23 08:51:13;;;;;;;28.10;17.87;;;3.90;99.90;;;;;;5074328;28;20457;-69
2023/01/23 08:53:41;;;;;;;27.97;17.47;;;3.90;99.90;;;;;;5074319;28;20549;-69
2023/01/23 08:56:14;;;;;;;28.73;18.90;;;4.00;99.90;;;;;;5074037;28;20454;-70
2023/01/23 08:58:41;;;;;;;29.83;17.60;;;4.10;99.90;;;;;;5074522;28;20473;-70
2023/01/23 09:01:11;;;;;;;24.97;17.17;;;4.10;99.90;;;;;;5073991;28;20530;-71
2023/01/23 09:03:38;;;;;;;26.03;16.60;;;4.10;99.90;;;;;;5074204;28;20493;-71
2023/01/23 09:06:06;;;;;;;26.93;16.13;;;4.10;99.90;;;;;;5073733;28;20875;-70
2023/01/23 09:08:33;;;;;;;25.30;16.47;;;4.10;99.90;;;;;;5074429;28;20774;-70
2023/01/23 09:11:01;;;;;;;23.10;15.70;;;4.10;99.90;;;;;;5074280;28;20786;-71
2023/01/23 09:13:29;;;;;;;23.57;15.93;;;4.10;99.90;;;;;;5073870;28;20453;-70
2023/01/23 09:15:56;;;;;;;24.97;16.43;;;4.10;99.90;;;;;;5076604;28;20497;-70
2023/01/23 09:18:23;;;;;;;34.47;22.07;;;4.10;99.90;;;;;;5077692;28;20504;-70
2023/01/23 09:20:50;;;;;;;32.70;21.40;;;4.10;99.90;;;;;;5077573;28;20706;-69
2023/01/23 09:23:17;;;;;;;43.60;26.30;;;4.20;99.90;;;;;;5077707;28;20464;-69
2023/01/23 09:25:44;;;;;;;35.17;22.20;;;4.20;99.90;;;;;;5077334;28;20462;-71
2023/01/23 09:28:11;;;;;;;22.80;15.93;;;4.20;99.90;;;;;;5078249;28;20565;-71
2023/01/23 09:30:40;;;;;;;33.20;21.03;;;4.20;99.90;;;;;;5077901;28;20962;-70
2023/01/23 09:33:07;;;;;;;25.77;16.73;;;4.20;99.90;;;;;;5077593;28;20785;-70
2023/01/23 09:35:34;;;;;;;24.57;16.90;;;4.20;99.90;;;;;;5077341;28;20524;-71
2023/01/23 09:38:05;;;;;;;26.70;15.50;;;4.20;99.90;;;;;;5078310;28;20589;-71
2023/01/23 09:40:35;;;;;;;21.20;15.47;;;4.20;99.90;;;;;;5077669;28;20440;-70
2023/01/23 09:43:10;;;;;;;28.60;17.90;;;4.20;99.90;;;;;;5076915;28;20488;-69
2023/01/23 09:45:40;;;;;;;25.10;16.67;;;4.10;99.90;;;;;;5077497;28;20453;-70
2023/01/23 09:48:17;;;;;;;22.13;15.27;;;4.10;99.90;;;;;;5076961;28;20536;-71
2023/01/23 09:50:54;;;;;;;23.80;15.03;;;4.20;99.90;;;;;;5076980;28;20445;-70
2023/01/23 09:53:25;;;;;;;25.20;16.53;;;4.20;99.90;;;;;;5077048;28;20775;-69
2023/01/23 09:55:59;;;;;;;24.97;15.53;;;4.20;99.90;;;;;;5077146;28;20577;-70
2023/01/23 09:58:30;;;;;;;28.80;16.77;;;4.30;99.90;;;;;;5077375;28;20562;-70
2023/01/23 10:00:59;;;;;;;23.90;15.57;;;4.30;99.90;;;;;;5076696;28;20482;-70
2023/01/23 10:03:31;;;;;;;22.23;15.40;;;4.40;99.90;;;;;;5076830;28;20853;-70
2023/01/23 10:06:13;;;;;;;32.60;17.20;;;4.40;99.90;;;;;;5076828;28;20529;-69
2023/01/23 10:08:48;;;;;;;25.57;16.80;;;4.40;99.90;;;;;;5076589;28;20470;-69
2023/01/23 10:11:22;;;;;;;25.87;16.93;;;4.40;99.90;;;;;;5076802;28;20446;-69
2023/01/23 10:14:10;;;;;;;28.60;17.53;;;4.40;99.90;;;;;;5077339;28;20470;-70
2023/01/23 10:16:54;;;;;;;23.10;14.80;;;4.40;99.90;;;;;;5076539;28;20438;-70
2023/01/23 10:19:40;;;;;;;24.77;17.50;;;4.40;99.90;;;;;;5076117;28;20470;-69
2023/01/23 10:22:22;;;;;;;23.40;15.83;;;4.40;99.90;;;;;;5076407;28;20529;-69
2023/01/23 10:24:51;;;;;;;26.10;16.03;;;4.40;99.90;;;;;;5076644;28;20524;-70
2023/01/23 10:27:21;;;;;;;29.30;16.40;;;4.30;99.90;;;;;;5076421;28;20541;-70
2023/01/23 10:29:52;;;;;;;28.00;17.23;;;4.40;99.90;;;;;;5076744;28;20450;-70
2023/01/23 10:32:26;;;;;;;29.97;17.30;;;4.40;99.90;;;;;;5076240;28;20947;-70
2023/01/23 10:34:57;;;;;;;36.13;24.63;;;4.40;99.90;;;;;;5076209;28;20443;-69
2023/01/23 10:37:43;;;;;;;32.00;18.50;;;4.40;99.90;;;;;;5076035;28;20450;-71
2023/01/23 10:40:13;;;;;;;26.43;16.90;;;4.50;99.90;;;;;;5076630;28;20422;-70
2023/01/23 10:42:41;;;;;;;26.70;16.20;;;4.50;99.90;;;;;;5075691;28;20481;-71
2023/01/23 10:45:17;;;;;;;26.93;16.93;;;4.50;99.90;;;;;;5075912;28;20782;-70
2023/01/23 10:47:48;;;;;;;23.97;15.80;;;4.50;99.90;;;;;;5075958;28;20541;-69
2023/01/23 10:50:15;;;;;;;24.30;15.63;;;4.50;99.90;;;;;;5076411;28;20456;-69
2023/01/23 10:52:45;;;;;;;24.27;16.90;;;4.40;99.90;;;;;;5075363;28;20867;-70
2023/01/23 10:55:29;;;;;;;28.40;18.93;;;4.40;99.90;;;;;;5076176;28;20460;-68
2023/01/23 10:57:58;;;;;;;34.53;22.53;;;4.30;99.90;;;;;;5075917;28;20505;-69
2023/01/23 11:00:33;;;;;;;33.80;21.10;;;4.30;99.90;;;;;;5075717;28;20520;-69
2023/01/23 11:03:26;;;;;;;25.70;16.00;;;4.30;99.90;;;;;;5075982;28;20954;-70
2023/01/23 11:05:54;;;;;;;24.97;15.93;;;4.30;99.90;;;;;;5076289;28;20530;-70
2023/01/23 11:08:27;;;;;;;26.73;17.03;;;4.30;99.90;;;;;;5076279;28;20458;-70
2023/01/23 11:10:58;;;;;;;23.53;14.87;;;4.30;99.90;;;;;;5076868;28;20973;-71
2023/01/23 11:13:29;;;;;;;22.30;14.57;;;4.30;99.90;;;;;;5076271;28;20541;-69
2023/01/23 11:15:57;;;;;;;21.93;15.13;;;4.30;99.90;;;;;;5075262;28;20464;-70
2023/01/23 11:18:32;;;;;;;26.43;17.20;;;4.30;99.90;;;;;;5075247;28;20478;-70
2023/01/23 11:20:59;;;;;;;21.37;15.80;;;4.30;99.90;;;;;;5074765;28;20453;-69
2023/01/23 11:23:26;;;;;;;23.60;16.37;;;4.30;99.90;;;;;;5074854;28;20466;-69
2023/01/23 11:25:54;;;;;;;29.83;18.40;;;4.30;99.90;;;;;;5075052;28;20458;-69
2023/01/23 11:28:25;;;;;;;25.90;17.03;;;4.30;99.90;;;;;;5075454;28;20470;-70
2023/01/23 11:30:56;;;;;;;26.53;17.00;;;4.30;99.90;;;;;;5075850;28;20453;-69
2023/01/23 11:33:40;;;;;;;23.60;15.50;;;4.40;99.90;;;;;;5075631;28;20550;-69
2023/01/23 11:36:28;;;;;;;26.67;17.13;;;4.30;99.90;;;;;;5076480;28;20481;-69
2023/01/23 11:39:01;;;;;;;28.40;17.23;;;4.30;99.90;;;;;;5076551;28;20496;-70
2023/01/23 11:41:30;;;;;;;33.40;18.30;;;4.30;99.90;;;;;;5076758;28;20828;-70
2023/01/23 11:43:57;;;;;;;29.33;17.80;;;4.30;99.90;;;;;;5075494;28;20521;-69
2023/01/23 11:46:40;;;;;;;27.73;18.00;;;4.30;99.90;;;;;;5075733;28;20542;-70
2023/01/23 11:49:24;;;;;;;30.33;17.87;;;4.30;99.90;;;;;;5076625;28;20470;-69
2023/01/23 11:52:04;;;;;;;26.30;17.40;;;4.20;99.90;;;;;;5077156;28;20519;-70
2023/01/23 11:54:49;;;;;;;27.93;17.83;;;4.20;99.90;;;;;;5075778;28;20970;-70
2023/01/23 11:57:29;;;;;;;26.20;16.60;;;4.20;99.90;;;;;;5075806;28;20598;-68
2023/01/23 12:00:16;;;;;;;25.97;17.10;;;4.20;99.90;;;;;;5075222;28;20553;-69
2023/01/23 12:03:04;;;;;;;24.10;16.30;;;4.30;99.90;;;;;;5070274;28;20516;-69
2023/01/23 12:05:51;;;;;;;26.70;17.10;;;4.30;99.90;;;;;;5055126;28;20439;-68
2023/01/23 12:08:26;;;;;;;21.77;15.17;;;4.40;99.90;;;;;;5054740;28;20494;-68
2023/01/23 12:11:09;;;;;;;20.37;14.07;;;4.40;99.90;;;;;;5055395;28;20525;-69
2023/01/23 12:13:53;;;;;;;23.20;15.50;;;4.40;99.90;;;;;;5063948;28;20450;-70
2023/01/23 12:16:24;;;;;;;28.53;17.23;;;4.40;99.90;;;;;;5075314;28;20452;-69
2023/01/23 12:19:08;;;;;;;21.47;14.73;;;4.40;99.90;;;;;;5075094;28;20641;-70
2023/01/23 12:21:45;;;;;;;23.10;14.40;;;4.40;99.90;;;;;;5074853;28;20474;-69
2023/01/23 12:24:33;;;;;;;21.43;13.90;;;4.40;99.90;;;;;;5059784;28;20514;-69
2023/01/23 12:27:06;;;;;;;19.67;14.33;;;4.40;99.90;;;;;;5054730;28;20550;-69
2023/01/23 12:29:48;;;;;;;19.50;12.87;;;4.40;99.90;;;;;;5054417;28;20447;-70
2023/01/23 12:32:39;;;;;;;19.40;14.33;;;4.40;99.90;;;;;;5054600;28;20763;-69
2023/01/23 12:35:21;;;;;;;20.03;13.60;;;4.40;99.90;;;;;;5054228;28;20506;-69
2023/01/23 12:38:10;;;;;;;18.83;12.70;;;4.40;99.90;;;;;;5055092;28;20447;-70
2023/01/23 12:40:40;;;;;;;21.67;14.40;;;4.40;99.90;;;;;;5055186;28;20880;-69
2023/01/23 12:43:14;;;;;;;18.67;12.77;;;4.40;99.90;;;;;;5054132;28;20494;-69
2023/01/23 12:45:47;;;;;;;19.33;12.80;;;4.40;99.90;;;;;;5054838;28;20439;-68
2023/01/23 12:48:17;;;;;;;18.90;13.10;;;4.40;99.90;;;;;;5054931;28;20444;-69
2023/01/23 12:50:48;;;;;;;20.40;12.20;;;4.40;99.90;;;;;;5058513;28;20458;-70
2023/01/23 12:53:18;;;;;;;22.00;13.83;;;4.40;99.90;;;;;;5058698;28;20465;-69
2023/01/23 12:55:57;;;;;;;19.90;11.80;;;4.40;99.90;;;;;;5058399;28;20466;-70
2023/01/23 12:58:27;;;;;;;18.90;13.60;;;4.40;99.90;;;;;;5058032;28;20443;-69